sensor_id;sensor_type;location;lat;lon;timestamp;P1;durP1;ratioP1;P2;durP2;ratioP2
7659;SDS011;3872;47.902;8.162;2023-12-07T00:00:29;12.03;;;5.23;;
7659;SDS011;3872;47.902;8.162;2023-12-07T00:02:55;10.83;;;5.73;;
7659;SDS011;3872;47.902;8.162;2023-12-07T00:05:22;8.17;;;4.90;;
7659;SDS011;3872;47.902;8.162;2023-12-07T00:07:48;9.40;;;4.97;;
7659;SDS011;3872;47.902;8.162;2023-12-07T00:10:16;14.27;;;4.80;;
7659;SDS011;3872;47.902;8.162;2023-12-07T00:12:43;11.27;;;6.07;;
7659;SDS011;3872;47.902;8.162;2023-12-07T00:15:09;11.33;;;5.30;;
7659;SDS011;3872;47.902;8.162;2023-12-07T00:17:37;9.90;;;5.20;;
7659;SDS011;3872;47.902;8.162;2023-12-07T00:20:04;16.00;;;5.93;;
7659;SDS011;3872;47.902;8.162;2023-12-07T00:22:31;17.53;;;6.80;;
7659;SDS011;3872;47.902;8.162;2023-12-07T00:24:57;8.90;;;4.50;;
7659;SDS011;3872;47.902;8.162;2023-12-07T00:27:25;10.23;;;5.40;;
7659;SDS011;3872;47.902;8.162;2023-12-07T00:29:52;9.00;;;4.97;;
7659;SDS011;3872;47.902;8.162;2023-12-07T00:32:18;14.10;;;5.50;;
7659;SDS011;3872;47.902;8.162;2023-12-07T00:34:45;8.73;;;4.60;;
7659;SDS011;3872;47.902;8.162;2023-12-07T00:37:11;10.30;;;5.47;;
7659;SDS011;3872;47.902;8.162;2023-12-07T00:39:40;12.17;;;5.20;;
7659;SDS011;3872;47.902;8.162;2023-12-07T00:42:07;12.33;;;5.33;;
7659;SDS011;3872;47.902;8.162;2023-12-07T00:44:39;15.30;;;5.53;;
7659;SDS011;3872;47.902;8.162;2023-12-07T00:47:06;15.10;;;5.80;;
7659;SDS011;3872;47.902;8.162;2023-12-07T00:49:33;11.17;;;5.83;;
7659;SDS011;3872;47.902;8.162;2023-12-07T00:52:00;11.10;;;5.47;;
7659;SDS011;3872;47.902;8.162;2023-12-07T00:54:26;14.07;;;5.97;;
7659;SDS011;3872;47.902;8.162;2023-12-07T00:56:53;11.67;;;5.37;;
7659;SDS011;3872;47.902;8.162;2023-12-07T00:59:19;15.20;;;6.63;;
7659;SDS011;3872;47.902;8.162;2023-12-07T01:01:47;11.37;;;5.30;;
7659;SDS011;3872;47.902;8.162;2023-12-07T01:04:14;11.40;;;5.73;;
7659;SDS011;3872;47.902;8.162;2023-12-07T01:06:41;14.53;;;6.00;;
7659;SDS011;3872;47.902;8.162;2023-12-07T01:09:07;11.90;;;5.90;;
7659;SDS011;3872;47.902;8.162;2023-12-07T01:11:38;11.90;;;5.80;;
7659;SDS011;3872;47.902;8.162;2023-12-07T01:14:05;12.03;;;6.37;;
7659;SDS011;3872;47.902;8.162;2023-12-07T01:16:32;11.43;;;5.70;;
7659;SDS011;3872;47.902;8.162;2023-12-07T01:19:00;11.10;;;5.10;;
7659;SDS011;3872;47.902;8.162;2023-12-07T01:21:26;7.23;;;4.50;;
7659;SDS011;3872;47.902;8.162;2023-12-07T01:23:53;9.80;;;4.77;;
7659;SDS011;3872;47.902;8.162;2023-12-07T01:26:19;11.10;;;4.83;;
7659;SDS011;3872;47.902;8.162;2023-12-07T01:28:46;9.10;;;4.80;;
7659;SDS011;3872;47.902;8.162;2023-12-07T01:31:12;12.13;;;4.83;;
7659;SDS011;3872;47.902;8.162;2023-12-07T01:33:39;10.00;;;5.13;;
7659;SDS011;3872;47.902;8.162;2023-12-07T01:36:07;12.53;;;5.50;;
7659;SDS011;3872;47.902;8.162;2023-12-07T01:38:34;10.20;;;5.07;;
7659;SDS011;3872;47.902;8.162;2023-12-07T01:41:01;7.40;;;4.63;;
7659;SDS011;3872;47.902;8.162;2023-12-07T01:43:27;12.60;;;5.03;;
7659;SDS011;3872;47.902;8.162;2023-12-07T01:45:54;6.90;;;3.87;;
7659;SDS011;3872;47.902;8.162;2023-12-07T01:48:22;8.50;;;4.20;;
7659;SDS011;3872;47.902;8.162;2023-12-07T01:50:49;10.10;;;4.47;;
7659;SDS011;3872;47.902;8.162;2023-12-07T01:53:18;6.00;;;3.30;;
7659;SDS011;3872;47.902;8.162;2023-12-07T01:55:47;8.43;;;3.17;;
7659;SDS011;3872;47.902;8.162;2023-12-07T01:58:14;6.70;;;3.10;;
7659;SDS011;3872;47.902;8.162;2023-12-07T02:00:43;6.77;;;3.07;;
7659;SDS011;3872;47.902;8.162;2023-12-07T02:03:11;8.27;;;3.27;;
7659;SDS011;3872;47.902;8.162;2023-12-07T02:05:39;5.33;;;3.00;;
7659;SDS011;3872;47.902;8.162;2023-12-07T02:08:09;8.20;;;3.50;;
7659;SDS011;3872;47.902;8.162;2023-12-07T02:10:37;4.97;;;2.67;;
7659;SDS011;3872;47.902;8.162;2023-12-07T02:13:04;10.33;;;3.70;;
7659;SDS011;3872;47.902;8.162;2023-12-07T02:15:31;6.13;;;3.60;;
7659;SDS011;3872;47.902;8.162;2023-12-07T02:18:00;5.63;;;3.50;;
7659;SDS011;3872;47.902;8.162;2023-12-07T02:20:35;13.20;;;3.90;;
7659;SDS011;3872;47.902;8.162;2023-12-07T02:23:06;6.30;;;3.30;;
7659;SDS011;3872;47.902;8.162;2023-12-07T02:25:35;6.13;;;3.07;;
7659;SDS011;3872;47.902;8.162;2023-12-07T02:28:08;8.40;;;3.90;;
7659;SDS011;3872;47.902;8.162;2023-12-07T02:30:35;8.13;;;4.07;;
7659;SDS011;3872;47.902;8.162;2023-12-07T02:33:01;8.93;;;3.53;;
7659;SDS011;3872;47.902;8.162;2023-12-07T02:35:30;12.13;;;3.73;;
7659;SDS011;3872;47.902;8.162;2023-12-07T02:37:57;6.47;;;3.60;;
7659;SDS011;3872;47.902;8.162;2023-12-07T02:40:26;7.80;;;4.00;;
7659;SDS011;3872;47.902;8.162;2023-12-07T02:42:55;9.03;;;3.10;;
7659;SDS011;3872;47.902;8.162;2023-12-07T02:45:23;9.17;;;3.93;;
7659;SDS011;3872;47.902;8.162;2023-12-07T02:47:51;8.67;;;4.10;;
7659;SDS011;3872;47.902;8.162;2023-12-07T02:50:18;8.90;;;3.60;;
7659;SDS011;3872;47.902;8.162;2023-12-07T02:52:45;7.17;;;3.70;;
7659;SDS011;3872;47.902;8.162;2023-12-07T02:55:12;5.77;;;2.77;;
7659;SDS011;3872;47.902;8.162;2023-12-07T02:57:38;5.60;;;3.00;;
7659;SDS011;3872;47.902;8.162;2023-12-07T03:00:05;5.27;;;2.60;;
7659;SDS011;3872;47.902;8.162;2023-12-07T03:02:34;4.43;;;2.20;;
7659;SDS011;3872;47.902;8.162;2023-12-07T03:05:01;4.87;;;2.30;;
7659;SDS011;3872;47.902;8.162;2023-12-07T03:07:28;6.30;;;2.10;;
7659;SDS011;3872;47.902;8.162;2023-12-07T03:09:54;7.13;;;2.30;;
7659;SDS011;3872;47.902;8.162;2023-12-07T03:12:21;5.50;;;2.47;;
7659;SDS011;3872;47.902;8.162;2023-12-07T03:14:48;5.50;;;2.30;;
7659;SDS011;3872;47.902;8.162;2023-12-07T03:17:15;6.37;;;2.60;;
7659;SDS011;3872;47.902;8.162;2023-12-07T03:19:42;5.10;;;2.00;;
7659;SDS011;3872;47.902;8.162;2023-12-07T03:22:09;4.70;;;2.73;;
7659;SDS011;3872;47.902;8.162;2023-12-07T03:24:36;5.00;;;1.80;;
7659;SDS011;3872;47.902;8.162;2023-12-07T03:27:03;4.60;;;1.97;;
7659;SDS011;3872;47.902;8.162;2023-12-07T03:29:31;4.40;;;1.73;;
7659;SDS011;3872;47.902;8.162;2023-12-07T03:31:58;6.57;;;2.50;;
7659;SDS011;3872;47.902;8.162;2023-12-07T03:34:24;6.10;;;2.43;;
7659;SDS011;3872;47.902;8.162;2023-12-07T03:36:52;5.53;;;2.40;;
7659;SDS011;3872;47.902;8.162;2023-12-07T03:39:20;7.70;;;3.03;;
7659;SDS011;3872;47.902;8.162;2023-12-07T03:41:47;4.77;;;2.43;;
7659;SDS011;3872;47.902;8.162;2023-12-07T03:44:14;6.43;;;2.80;;
7659;SDS011;3872;47.902;8.162;2023-12-07T03:46:42;7.23;;;2.63;;
7659;SDS011;3872;47.902;8.162;2023-12-07T03:49:09;7.73;;;4.00;;
7659;SDS011;3872;47.902;8.162;2023-12-07T03:51:35;5.70;;;2.60;;
7659;SDS011;3872;47.902;8.162;2023-12-07T03:54:05;7.47;;;3.37;;
7659;SDS011;3872;47.902;8.162;2023-12-07T03:56:32;7.90;;;4.10;;
7659;SDS011;3872;47.902;8.162;2023-12-07T03:58:59;7.37;;;3.63;;
7659;SDS011;3872;47.902;8.162;2023-12-07T04:01:26;8.17;;;3.10;;
7659;SDS011;3872;47.902;8.162;2023-12-07T04:03:54;7.90;;;3.03;;
7659;SDS011;3872;47.902;8.162;2023-12-07T04:06:22;8.27;;;3.50;;
7659;SDS011;3872;47.902;8.162;2023-12-07T04:08:49;8.43;;;4.20;;
7659;SDS011;3872;47.902;8.162;2023-12-07T04:11:17;7.00;;;3.37;;
7659;SDS011;3872;47.902;8.162;2023-12-07T04:13:45;6.63;;;3.53;;
7659;SDS011;3872;47.902;8.162;2023-12-07T04:16:11;6.70;;;2.80;;
7659;SDS011;3872;47.902;8.162;2023-12-07T04:18:38;6.47;;;2.17;;
7659;SDS011;3872;47.902;8.162;2023-12-07T04:21:05;5.03;;;2.10;;
7659;SDS011;3872;47.902;8.162;2023-12-07T04:23:31;4.77;;;1.80;;
7659;SDS011;3872;47.902;8.162;2023-12-07T04:25:58;4.83;;;2.10;;
7659;SDS011;3872;47.902;8.162;2023-12-07T04:28:26;4.57;;;2.20;;
7659;SDS011;3872;47.902;8.162;2023-12-07T04:30:53;6.07;;;2.30;;
7659;SDS011;3872;47.902;8.162;2023-12-07T04:33:19;7.10;;;2.50;;
7659;SDS011;3872;47.902;8.162;2023-12-07T04:35:46;6.00;;;2.17;;
7659;SDS011;3872;47.902;8.162;2023-12-07T04:38:12;4.60;;;2.13;;
7659;SDS011;3872;47.902;8.162;2023-12-07T04:40:39;5.57;;;2.20;;
7659;SDS011;3872;47.902;8.162;2023-12-07T04:43:06;7.83;;;3.50;;
7659;SDS011;3872;47.902;8.162;2023-12-07T04:45:34;5.67;;;3.07;;
7659;SDS011;3872;47.902;8.162;2023-12-07T04:48:01;8.53;;;3.50;;
7659;SDS011;3872;47.902;8.162;2023-12-07T04:50:28;6.00;;;2.83;;
7659;SDS011;3872;47.902;8.162;2023-12-07T04:52:55;10.00;;;4.03;;
7659;SDS011;3872;47.902;8.162;2023-12-07T04:55:22;5.60;;;2.80;;
7659;SDS011;3872;47.902;8.162;2023-12-07T04:57:49;8.67;;;3.73;;
7659;SDS011;3872;47.902;8.162;2023-12-07T05:00:15;8.00;;;3.50;;
7659;SDS011;3872;47.902;8.162;2023-12-07T05:02:44;6.97;;;4.13;;
7659;SDS011;3872;47.902;8.162;2023-12-07T05:05:10;8.27;;;3.37;;
7659;SDS011;3872;47.902;8.162;2023-12-07T05:07:37;10.23;;;4.03;;
7659;SDS011;3872;47.902;8.162;2023-12-07T05:10:04;15.97;;;4.93;;
7659;SDS011;3872;47.902;8.162;2023-12-07T05:12:31;5.70;;;2.50;;
7659;SDS011;3872;47.902;8.162;2023-12-07T05:14:58;15.30;;;4.90;;
7659;SDS011;3872;47.902;8.162;2023-12-07T05:17:24;16.23;;;3.87;;
7659;SDS011;3872;47.902;8.162;2023-12-07T05:19:52;8.40;;;4.00;;
7659;SDS011;3872;47.902;8.162;2023-12-07T05:22:19;24.40;;;5.60;;
7659;SDS011;3872;47.902;8.162;2023-12-07T05:24:46;12.53;;;4.30;;
7659;SDS011;3872;47.902;8.162;2023-12-07T05:27:13;15.57;;;5.17;;
7659;SDS011;3872;47.902;8.162;2023-12-07T05:29:40;33.33;;;7.70;;
7659;SDS011;3872;47.902;8.162;2023-12-07T05:32:07;15.00;;;4.43;;
7659;SDS011;3872;47.902;8.162;2023-12-07T05:34:34;21.37;;;4.93;;
7659;SDS011;3872;47.902;8.162;2023-12-07T05:37:03;9.83;;;3.17;;
7659;SDS011;3872;47.902;8.162;2023-12-07T05:39:30;10.93;;;3.93;;
7659;SDS011;3872;47.902;8.162;2023-12-07T05:41:57;8.10;;;3.30;;
7659;SDS011;3872;47.902;8.162;2023-12-07T05:44:23;8.30;;;3.30;;
7659;SDS011;3872;47.902;8.162;2023-12-07T05:46:50;6.90;;;3.60;;
7659;SDS011;3872;47.902;8.162;2023-12-07T05:49:16;8.37;;;4.10;;
7659;SDS011;3872;47.902;8.162;2023-12-07T05:51:43;12.50;;;3.60;;
7659;SDS011;3872;47.902;8.162;2023-12-07T05:54:11;24.80;;;4.87;;
7659;SDS011;3872;47.902;8.162;2023-12-07T05:56:37;15.90;;;4.87;;
7659;SDS011;3872;47.902;8.162;2023-12-07T05:59:04;33.17;;;6.33;;
7659;SDS011;3872;47.902;8.162;2023-12-07T06:01:31;34.40;;;5.93;;
7659;SDS011;3872;47.902;8.162;2023-12-07T06:03:58;51.23;;;5.97;;
7659;SDS011;3872;47.902;8.162;2023-12-07T06:06:24;22.70;;;5.17;;
7659;SDS011;3872;47.902;8.162;2023-12-07T06:08:51;13.53;;;4.63;;
7659;SDS011;3872;47.902;8.162;2023-12-07T06:11:18;6.47;;;3.20;;
7659;SDS011;3872;47.902;8.162;2023-12-07T06:13:45;11.17;;;3.00;;
7659;SDS011;3872;47.902;8.162;2023-12-07T06:16:12;6.03;;;2.80;;
7659;SDS011;3872;47.902;8.162;2023-12-07T06:18:40;24.93;;;4.37;;
7659;SDS011;3872;47.902;8.162;2023-12-07T06:21:06;11.60;;;3.00;;
7659;SDS011;3872;47.902;8.162;2023-12-07T06:23:38;13.67;;;3.40;;
7659;SDS011;3872;47.902;8.162;2023-12-07T06:26:04;9.73;;;3.80;;
7659;SDS011;3872;47.902;8.162;2023-12-07T06:28:33;16.30;;;4.80;;
7659;SDS011;3872;47.902;8.162;2023-12-07T06:31:04;24.73;;;4.23;;
7659;SDS011;3872;47.902;8.162;2023-12-07T06:33:31;7.67;;;3.73;;
7659;SDS011;3872;47.902;8.162;2023-12-07T06:35:58;11.27;;;3.43;;
7659;SDS011;3872;47.902;8.162;2023-12-07T06:38:24;7.77;;;4.13;;
7659;SDS011;3872;47.902;8.162;2023-12-07T06:40:51;13.00;;;3.13;;
7659;SDS011;3872;47.902;8.162;2023-12-07T06:43:17;9.10;;;3.40;;
7659;SDS011;3872;47.902;8.162;2023-12-07T06:45:46;10.00;;;3.50;;
7659;SDS011;3872;47.902;8.162;2023-12-07T06:48:12;19.20;;;4.23;;
7659;SDS011;3872;47.902;8.162;2023-12-07T06:50:39;11.23;;;3.47;;
7659;SDS011;3872;47.902;8.162;2023-12-07T06:53:06;27.77;;;4.13;;
7659;SDS011;3872;47.902;8.162;2023-12-07T06:55:33;11.00;;;4.00;;
7659;SDS011;3872;47.902;8.162;2023-12-07T06:57:59;29.20;;;5.47;;
7659;SDS011;3872;47.902;8.162;2023-12-07T07:00:26;12.50;;;3.93;;
7659;SDS011;3872;47.902;8.162;2023-12-07T07:02:54;6.70;;;3.17;;
7659;SDS011;3872;47.902;8.162;2023-12-07T07:05:20;11.70;;;5.13;;
7659;SDS011;3872;47.902;8.162;2023-12-07T07:07:47;13.10;;;5.00;;
7659;SDS011;3872;47.902;8.162;2023-12-07T07:10:16;11.70;;;5.70;;
7659;SDS011;3872;47.902;8.162;2023-12-07T07:12:43;13.67;;;6.30;;
7659;SDS011;3872;47.902;8.162;2023-12-07T07:15:09;33.47;;;5.33;;
7659;SDS011;3872;47.902;8.162;2023-12-07T07:17:36;13.50;;;5.00;;
7659;SDS011;3872;47.902;8.162;2023-12-07T07:20:04;23.47;;;5.13;;
7659;SDS011;3872;47.902;8.162;2023-12-07T07:22:32;41.10;;;5.17;;
7659;SDS011;3872;47.902;8.162;2023-12-07T07:24:59;38.70;;;6.80;;
7659;SDS011;3872;47.902;8.162;2023-12-07T07:27:26;28.23;;;7.17;;
7659;SDS011;3872;47.902;8.162;2023-12-07T07:29:52;19.97;;;7.37;;
7659;SDS011;3872;47.902;8.162;2023-12-07T07:32:19;29.50;;;6.30;;
7659;SDS011;3872;47.902;8.162;2023-12-07T07:34:46;13.43;;;5.27;;
7659;SDS011;3872;47.902;8.162;2023-12-07T07:37:13;19.60;;;6.27;;
7659;SDS011;3872;47.902;8.162;2023-12-07T07:39:40;14.63;;;6.30;;
7659;SDS011;3872;47.902;8.162;2023-12-07T07:42:06;13.23;;;4.73;;
7659;SDS011;3872;47.902;8.162;2023-12-07T07:44:33;14.27;;;6.40;;
7659;SDS011;3872;47.902;8.162;2023-12-07T07:46:59;16.10;;;6.03;;
7659;SDS011;3872;47.902;8.162;2023-12-07T07:49:26;23.73;;;6.63;;
7659;SDS011;3872;47.902;8.162;2023-12-07T07:51:52;14.97;;;6.00;;
7659;SDS011;3872;47.902;8.162;2023-12-07T07:54:21;17.23;;;5.90;;
7659;SDS011;3872;47.902;8.162;2023-12-07T07:56:47;15.67;;;6.37;;
7659;SDS011;3872;47.902;8.162;2023-12-07T07:59:14;16.23;;;4.93;;
7659;SDS011;3872;47.902;8.162;2023-12-07T08:01:41;11.50;;;5.60;;
7659;SDS011;3872;47.902;8.162;2023-12-07T08:04:09;16.00;;;5.97;;
7659;SDS011;3872;47.902;8.162;2023-12-07T08:06:37;16.10;;;5.40;;
7659;SDS011;3872;47.902;8.162;2023-12-07T08:09:03;13.40;;;5.47;;
7659;SDS011;3872;47.902;8.162;2023-12-07T08:11:31;9.80;;;4.17;;
7659;SDS011;3872;47.902;8.162;2023-12-07T08:13:58;12.13;;;4.97;;
7659;SDS011;3872;47.902;8.162;2023-12-07T08:16:24;17.30;;;5.80;;
7659;SDS011;3872;47.902;8.162;2023-12-07T08:18:52;14.93;;;5.50;;
7659;SDS011;3872;47.902;8.162;2023-12-07T08:21:19;12.43;;;5.80;;
7659;SDS011;3872;47.902;8.162;2023-12-07T08:23:47;10.43;;;3.90;;
7659;SDS011;3872;47.902;8.162;2023-12-07T08:26:13;13.97;;;5.50;;
7659;SDS011;3872;47.902;8.162;2023-12-07T08:28:42;10.23;;;4.67;;
7659;SDS011;3872;47.902;8.162;2023-12-07T08:31:09;7.83;;;3.70;;
7659;SDS011;3872;47.902;8.162;2023-12-07T08:33:36;14.77;;;5.37;;
7659;SDS011;3872;47.902;8.162;2023-12-07T08:36:04;10.63;;;4.40;;
7659;SDS011;3872;47.902;8.162;2023-12-07T08:38:31;9.80;;;4.83;;
7659;SDS011;3872;47.902;8.162;2023-12-07T08:40:58;12.93;;;5.13;;
7659;SDS011;3872;47.902;8.162;2023-12-07T08:43:25;8.20;;;3.87;;
7659;SDS011;3872;47.902;8.162;2023-12-07T08:45:54;7.70;;;4.20;;
7659;SDS011;3872;47.902;8.162;2023-12-07T08:48:21;6.30;;;3.07;;
7659;SDS011;3872;47.902;8.162;2023-12-07T08:50:48;8.43;;;3.80;;
7659;SDS011;3872;47.902;8.162;2023-12-07T08:53:15;11.63;;;3.50;;
7659;SDS011;3872;47.902;8.162;2023-12-07T08:55:42;9.63;;;3.90;;
7659;SDS011;3872;47.902;8.162;2023-12-07T08:58:08;15.63;;;5.60;;
7659;SDS011;3872;47.902;8.162;2023-12-07T09:00:35;10.70;;;4.70;;
7659;SDS011;3872;47.902;8.162;2023-12-07T09:03:03;13.97;;;5.87;;
7659;SDS011;3872;47.902;8.162;2023-12-07T09:05:30;17.50;;;6.03;;
7659;SDS011;3872;47.902;8.162;2023-12-07T09:07:57;13.30;;;5.70;;
7659;SDS011;3872;47.902;8.162;2023-12-07T09:10:23;15.90;;;7.60;;
7659;SDS011;3872;47.902;8.162;2023-12-07T09:12:50;18.63;;;7.03;;
7659;SDS011;3872;47.902;8.162;2023-12-07T09:15:16;13.20;;;7.10;;
7659;SDS011;3872;47.902;8.162;2023-12-07T09:17:43;11.00;;;5.57;;
7659;SDS011;3872;47.902;8.162;2023-12-07T09:20:11;8.77;;;4.23;;
7659;SDS011;3872;47.902;8.162;2023-12-07T09:22:39;9.87;;;4.40;;
7659;SDS011;3872;47.902;8.162;2023-12-07T09:25:07;12.17;;;5.20;;
7659;SDS011;3872;47.902;8.162;2023-12-07T09:27:35;15.80;;;6.20;;
7659;SDS011;3872;47.902;8.162;2023-12-07T09:30:03;11.60;;;5.40;;
7659;SDS011;3872;47.902;8.162;2023-12-07T09:32:31;8.93;;;4.63;;
7659;SDS011;3872;47.902;8.162;2023-12-07T09:34:57;9.20;;;4.90;;
7659;SDS011;3872;47.902;8.162;2023-12-07T09:37:25;11.50;;;4.90;;
7659;SDS011;3872;47.902;8.162;2023-12-07T09:39:52;13.50;;;5.23;;
7659;SDS011;3872;47.902;8.162;2023-12-07T09:42:18;11.63;;;4.73;;
7659;SDS011;3872;47.902;8.162;2023-12-07T09:44:45;12.83;;;5.10;;
7659;SDS011;3872;47.902;8.162;2023-12-07T09:47:11;10.80;;;4.70;;
7659;SDS011;3872;47.902;8.162;2023-12-07T09:49:38;10.20;;;5.00;;
7659;SDS011;3872;47.902;8.162;2023-12-07T09:52:06;10.67;;;4.63;;
7659;SDS011;3872;47.902;8.162;2023-12-07T09:54:35;11.13;;;6.07;;
7659;SDS011;3872;47.902;8.162;2023-12-07T09:57:06;13.23;;;5.60;;
7659;SDS011;3872;47.902;8.162;2023-12-07T09:59:34;9.63;;;5.30;;
7659;SDS011;3872;47.902;8.162;2023-12-07T10:02:01;9.00;;;5.47;;
7659;SDS011;3872;47.902;8.162;2023-12-07T10:04:28;10.23;;;5.33;;
7659;SDS011;3872;47.902;8.162;2023-12-07T10:06:56;12.83;;;5.53;;
7659;SDS011;3872;47.902;8.162;2023-12-07T10:09:22;10.90;;;5.53;;
7659;SDS011;3872;47.902;8.162;2023-12-07T10:11:50;12.10;;;5.83;;
7659;SDS011;3872;47.902;8.162;2023-12-07T10:14:28;11.60;;;6.07;;
7659;SDS011;3872;47.902;8.162;2023-12-07T10:16:55;15.10;;;5.30;;
7659;SDS011;3872;47.902;8.162;2023-12-07T10:19:22;16.23;;;6.47;;
7659;SDS011;3872;47.902;8.162;2023-12-07T10:21:49;13.80;;;5.87;;
7659;SDS011;3872;47.902;8.162;2023-12-07T10:24:17;17.20;;;6.63;;
7659;SDS011;3872;47.902;8.162;2023-12-07T10:26:45;14.87;;;6.67;;
7659;SDS011;3872;47.902;8.162;2023-12-07T10:29:13;12.47;;;6.23;;
7659;SDS011;3872;47.902;8.162;2023-12-07T10:31:41;11.20;;;5.93;;
7659;SDS011;3872;47.902;8.162;2023-12-07T10:34:09;10.03;;;5.80;;
7659;SDS011;3872;47.902;8.162;2023-12-07T10:36:35;17.70;;;6.83;;
7659;SDS011;3872;47.902;8.162;2023-12-07T10:39:02;14.03;;;6.53;;
7659;SDS011;3872;47.902;8.162;2023-12-07T10:41:31;12.50;;;5.60;;
7659;SDS011;3872;47.902;8.162;2023-12-07T10:44:00;14.97;;;7.00;;
7659;SDS011;3872;47.902;8.162;2023-12-07T10:46:29;10.70;;;5.43;;
7659;SDS011;3872;47.902;8.162;2023-12-07T10:48:59;14.20;;;5.33;;
7659;SDS011;3872;47.902;8.162;2023-12-07T10:51:28;8.87;;;5.17;;
7659;SDS011;3872;47.902;8.162;2023-12-07T10:53:57;9.47;;;4.50;;
7659;SDS011;3872;47.902;8.162;2023-12-07T10:56:31;5.43;;;2.70;;
7659;SDS011;3872;47.902;8.162;2023-12-07T10:59:02;5.40;;;3.37;;
7659;SDS011;3872;47.902;8.162;2023-12-07T11:01:30;8.30;;;3.97;;
7659;SDS011;3872;47.902;8.162;2023-12-07T11:03:58;5.90;;;2.83;;
7659;SDS011;3872;47.902;8.162;2023-12-07T11:06:27;6.40;;;3.53;;
7659;SDS011;3872;47.902;8.162;2023-12-07T11:08:54;4.37;;;1.83;;
7659;SDS011;3872;47.902;8.162;2023-12-07T11:11:27;5.50;;;2.70;;
7659;SDS011;3872;47.902;8.162;2023-12-07T11:13:57;7.03;;;3.10;;
7659;SDS011;3872;47.902;8.162;2023-12-07T11:16:30;7.10;;;3.60;;
7659;SDS011;3872;47.902;8.162;2023-12-07T11:18:58;5.27;;;3.10;;
7659;SDS011;3872;47.902;8.162;2023-12-07T11:21:24;6.90;;;3.17;;
7659;SDS011;3872;47.902;8.162;2023-12-07T11:23:52;6.10;;;3.50;;
7659;SDS011;3872;47.902;8.162;2023-12-07T11:26:19;6.27;;;3.40;;
7659;SDS011;3872;47.902;8.162;2023-12-07T11:28:46;6.17;;;3.37;;
7659;SDS011;3872;47.902;8.162;2023-12-07T11:31:13;7.60;;;3.43;;
7659;SDS011;3872;47.902;8.162;2023-12-07T11:33:41;4.57;;;2.30;;
7659;SDS011;3872;47.902;8.162;2023-12-07T11:36:08;5.40;;;3.00;;
7659;SDS011;3872;47.902;8.162;2023-12-07T11:38:37;7.53;;;3.93;;
7659;SDS011;3872;47.902;8.162;2023-12-07T11:41:05;5.40;;;3.60;;
7659;SDS011;3872;47.902;8.162;2023-12-07T11:43:37;6.50;;;3.50;;
7659;SDS011;3872;47.902;8.162;2023-12-07T11:46:09;7.07;;;3.10;;
7659;SDS011;3872;47.902;8.162;2023-12-07T11:48:36;5.77;;;2.90;;
7659;SDS011;3872;47.902;8.162;2023-12-07T11:51:04;5.53;;;2.60;;
7659;SDS011;3872;47.902;8.162;2023-12-07T11:53:32;6.07;;;2.90;;
7659;SDS011;3872;47.902;8.162;2023-12-07T11:56:01;5.90;;;2.70;;
7659;SDS011;3872;47.902;8.162;2023-12-07T11:58:28;5.07;;;2.60;;
7659;SDS011;3872;47.902;8.162;2023-12-07T12:00:59;5.63;;;2.80;;
7659;SDS011;3872;47.902;8.162;2023-12-07T12:03:26;4.90;;;3.10;;
7659;SDS011;3872;47.902;8.162;2023-12-07T12:05:53;6.30;;;2.83;;
7659;SDS011;3872;47.902;8.162;2023-12-07T12:08:22;6.80;;;3.70;;
7659;SDS011;3872;47.902;8.162;2023-12-07T12:10:49;7.00;;;3.10;;
7659;SDS011;3872;47.902;8.162;2023-12-07T12:13:18;5.13;;;3.03;;
7659;SDS011;3872;47.902;8.162;2023-12-07T12:15:45;6.23;;;3.37;;
7659;SDS011;3872;47.902;8.162;2023-12-07T12:18:12;4.37;;;2.30;;
7659;SDS011;3872;47.902;8.162;2023-12-07T12:20:39;9.17;;;4.03;;
7659;SDS011;3872;47.902;8.162;2023-12-07T12:23:06;6.90;;;3.07;;
7659;SDS011;3872;47.902;8.162;2023-12-07T12:25:34;5.60;;;2.90;;
7659;SDS011;3872;47.902;8.162;2023-12-07T12:28:01;6.57;;;2.77;;
7659;SDS011;3872;47.902;8.162;2023-12-07T12:30:29;6.30;;;3.57;;
7659;SDS011;3872;47.902;8.162;2023-12-07T12:32:57;7.07;;;3.33;;
7659;SDS011;3872;47.902;8.162;2023-12-07T12:35:25;7.80;;;3.23;;
7659;SDS011;3872;47.902;8.162;2023-12-07T12:37:51;6.23;;;3.40;;
7659;SDS011;3872;47.902;8.162;2023-12-07T12:40:20;7.70;;;4.23;;
7659;SDS011;3872;47.902;8.162;2023-12-07T12:42:50;8.50;;;3.63;;
7659;SDS011;3872;47.902;8.162;2023-12-07T12:45:18;5.47;;;2.87;;
7659;SDS011;3872;47.902;8.162;2023-12-07T12:47:46;6.50;;;3.23;;
7659;SDS011;3872;47.902;8.162;2023-12-07T12:52:59;5.57;;;3.13;;
7659;SDS011;3872;47.902;8.162;2023-12-07T12:55:30;6.80;;;3.00;;
7659;SDS011;3872;47.902;8.162;2023-12-07T12:57:58;7.13;;;3.00;;
7659;SDS011;3872;47.902;8.162;2023-12-07T13:00:25;7.13;;;3.67;;
7659;SDS011;3872;47.902;8.162;2023-12-07T13:02:52;5.43;;;3.10;;
7659;SDS011;3872;47.902;8.162;2023-12-07T13:05:18;5.53;;;3.00;;
7659;SDS011;3872;47.902;8.162;2023-12-07T13:07:45;7.20;;;3.10;;
7659;SDS011;3872;47.902;8.162;2023-12-07T13:10:13;7.40;;;3.43;;
7659;SDS011;3872;47.902;8.162;2023-12-07T13:12:40;5.87;;;3.07;;
7659;SDS011;3872;47.902;8.162;2023-12-07T13:15:09;7.90;;;3.50;;
7659;SDS011;3872;47.902;8.162;2023-12-07T13:17:38;6.73;;;3.60;;
7659;SDS011;3872;47.902;8.162;2023-12-07T13:20:05;7.73;;;3.83;;
7659;SDS011;3872;47.902;8.162;2023-12-07T13:22:33;6.40;;;3.90;;
7659;SDS011;3872;47.902;8.162;2023-12-07T13:24:59;6.20;;;3.33;;
7659;SDS011;3872;47.902;8.162;2023-12-07T13:27:27;6.00;;;2.80;;
7659;SDS011;3872;47.902;8.162;2023-12-07T13:29:54;6.83;;;4.00;;
7659;SDS011;3872;47.902;8.162;2023-12-07T13:32:22;5.47;;;2.70;;
7659;SDS011;3872;47.902;8.162;2023-12-07T13:34:49;7.27;;;3.60;;
7659;SDS011;3872;47.902;8.162;2023-12-07T13:37:16;5.80;;;3.07;;
7659;SDS011;3872;47.902;8.162;2023-12-07T13:39:42;16.43;;;4.43;;
7659;SDS011;3872;47.902;8.162;2023-12-07T13:42:09;6.53;;;3.53;;
7659;SDS011;3872;47.902;8.162;2023-12-07T13:44:35;6.20;;;3.20;;
7659;SDS011;3872;47.902;8.162;2023-12-07T13:47:02;6.53;;;3.60;;
7659;SDS011;3872;47.902;8.162;2023-12-07T13:49:30;7.47;;;3.70;;
7659;SDS011;3872;47.902;8.162;2023-12-07T13:51:57;9.70;;;3.30;;
7659;SDS011;3872;47.902;8.162;2023-12-07T13:54:25;9.00;;;3.20;;
7659;SDS011;3872;47.902;8.162;2023-12-07T13:56:51;7.23;;;3.40;;
7659;SDS011;3872;47.902;8.162;2023-12-07T13:59:18;5.33;;;2.97;;
7659;SDS011;3872;47.902;8.162;2023-12-07T14:01:45;5.43;;;3.30;;
7659;SDS011;3872;47.902;8.162;2023-12-07T14:04:11;6.23;;;3.47;;
7659;SDS011;3872;47.902;8.162;2023-12-07T14:06:39;5.33;;;2.50;;
7659;SDS011;3872;47.902;8.162;2023-12-07T14:09:05;7.20;;;3.60;;
7659;SDS011;3872;47.902;8.162;2023-12-07T14:11:32;6.80;;;3.03;;
7659;SDS011;3872;47.902;8.162;2023-12-07T14:13:58;6.10;;;3.57;;
7659;SDS011;3872;47.902;8.162;2023-12-07T14:16:25;6.97;;;3.87;;
7659;SDS011;3872;47.902;8.162;2023-12-07T14:18:52;10.40;;;4.23;;
7659;SDS011;3872;47.902;8.162;2023-12-07T14:21:19;6.23;;;3.50;;
7659;SDS011;3872;47.902;8.162;2023-12-07T14:23:48;7.43;;;3.50;;
7659;SDS011;3872;47.902;8.162;2023-12-07T14:26:14;6.27;;;4.10;;
7659;SDS011;3872;47.902;8.162;2023-12-07T14:28:41;8.00;;;3.70;;
7659;SDS011;3872;47.902;8.162;2023-12-07T14:31:07;6.30;;;3.50;;
7659;SDS011;3872;47.902;8.162;2023-12-07T14:33:39;10.40;;;4.13;;
7659;SDS011;3872;47.902;8.162;2023-12-07T14:36:07;8.30;;;4.07;;
7659;SDS011;3872;47.902;8.162;2023-12-07T14:38:35;9.77;;;4.03;;
7659;SDS011;3872;47.902;8.162;2023-12-07T14:41:03;6.93;;;3.80;;
7659;SDS011;3872;47.902;8.162;2023-12-07T14:43:30;7.60;;;4.20;;
7659;SDS011;3872;47.902;8.162;2023-12-07T14:45:57;8.53;;;4.30;;
7659;SDS011;3872;47.902;8.162;2023-12-07T14:48:23;7.67;;;4.10;;
7659;SDS011;3872;47.902;8.162;2023-12-07T14:50:50;7.50;;;4.53;;
7659;SDS011;3872;47.902;8.162;2023-12-07T14:53:17;7.70;;;4.37;;
7659;SDS011;3872;47.902;8.162;2023-12-07T14:55:45;9.27;;;4.93;;
7659;SDS011;3872;47.902;8.162;2023-12-07T14:58:12;9.27;;;4.60;;
7659;SDS011;3872;47.902;8.162;2023-12-07T15:00:39;11.43;;;4.60;;
7659;SDS011;3872;47.902;8.162;2023-12-07T15:03:07;10.10;;;4.40;;
7659;SDS011;3872;47.902;8.162;2023-12-07T15:05:34;8.20;;;4.10;;
7659;SDS011;3872;47.902;8.162;2023-12-07T15:08:01;9.70;;;4.60;;
7659;SDS011;3872;47.902;8.162;2023-12-07T15:10:28;12.83;;;4.80;;
7659;SDS011;3872;47.902;8.162;2023-12-07T15:12:54;7.37;;;4.60;;